createdAt,value
2023-03-29T00:03:02.553Z,7.17
2023-03-29T00:08:05.746Z,7.31
2023-03-29T00:13:08.612Z,7.28
2023-03-29T00:18:12.795Z,7.40
2023-03-29T00:23:15.968Z,7.42
2023-03-29T00:28:18.959Z,7.46
2023-03-29T00:33:23.172Z,7.31
2023-03-29T00:38:26.342Z,7.51
2023-03-29T00:43:29.208Z,7.62
2023-03-29T00:48:33.540Z,7.45
2023-03-29T00:53:39.662Z,7.69
2023-03-29T00:58:45.838Z,7.80
2023-03-29T01:03:54.386Z,7.87
2023-03-29T01:08:59.588Z,8.01
2023-03-29T01:14:04.728Z,7.83
2023-03-29T01:19:11.679Z,7.71
2023-03-29T01:24:41.951Z,7.73
2023-03-29T01:29:49.042Z,7.92
2023-03-29T01:34:56.564Z,7.71
2023-03-29T01:39:59.552Z,7.77
2023-03-29T01:45:09.912Z,7.80
2023-03-29T01:50:15.873Z,7.80
2023-03-29T01:55:21.811Z,7.87
2023-03-29T02:00:27.742Z,8.03
2023-03-29T02:05:31.603Z,8.08
2023-03-29T02:10:35.370Z,7.99
2023-03-29T02:15:40.849Z,8.13
2023-03-29T02:20:47.304Z,8.25
2023-03-29T02:25:53.469Z,8.01
2023-03-29T02:31:04.716Z,8.15
2023-03-29T02:36:14.448Z,8.27
2023-03-29T02:41:17.993Z,8.04
2023-03-29T02:46:22.562Z,8.37
2023-03-29T02:51:27.441Z,8.46
2023-03-29T02:56:30.619Z,8.50
2023-03-29T03:01:36.759Z,8.57
2023-03-29T03:06:39.966Z,8.58
2023-03-29T03:11:42.862Z,8.46
2023-03-29T03:16:47.303Z,8.59
2023-03-29T03:21:50.994Z,8.66
2023-03-29T03:26:54.476Z,8.70
2023-03-29T03:31:58.665Z,8.82
2023-03-29T03:37:20.111Z,8.85
2023-03-29T03:42:23.124Z,8.73
2023-03-29T03:47:27.334Z,8.83
2023-03-29T03:52:32.847Z,8.74
2023-03-29T03:57:37.522Z,8.88
2023-03-29T04:02:42.876Z,8.92
2023-03-29T04:07:45.907Z,9.06
2023-03-29T04:13:08.998Z,9.02
2023-03-29T04:18:34.426Z,8.95
2023-03-29T04:23:37.777Z,8.98
2023-03-29T04:28:41.894Z,8.90
2023-03-29T04:33:53.397Z,8.97
2023-03-29T04:38:56.969Z,8.92
2023-03-29T04:44:03.514Z,8.99
2023-03-29T04:49:08.970Z,8.98
2023-03-29T04:54:15.752Z,9.00
2023-03-29T04:59:41.443Z,9.12
2023-03-29T05:04:56.856Z,9.22
2023-03-29T05:10:00.803Z,9.20
2023-03-29T05:15:03.913Z,9.35
2023-03-29T05:20:11.777Z,9.41
2023-03-29T05:25:17.513Z,9.47
2023-03-29T05:30:20.782Z,9.46
2023-03-29T05:35:36.040Z,9.51
2023-03-29T05:40:42.780Z,9.52
2023-03-29T05:46:04.610Z,9.46
2023-03-29T05:51:09.881Z,9.42
2023-03-29T05:56:16.045Z,9.42
2023-03-29T06:01:19.470Z,9.51
2023-03-29T06:06:35.765Z,9.53
2023-03-29T06:11:39.331Z,9.63
2023-03-29T06:17:02.733Z,9.67
2023-03-29T06:22:07.123Z,9.57
2023-03-29T06:27:10.661Z,9.81
2023-03-29T06:32:13.841Z,9.84
2023-03-29T06:37:27.676Z,9.86
2023-03-29T06:42:43.339Z,10.04
2023-03-29T06:48:24.710Z,9.91
2023-03-29T06:53:29.222Z,9.90
2023-03-29T06:58:36.703Z,10.20
2023-03-29T07:03:47.476Z,10.17
2023-03-29T07:08:59.529Z,10.26
2023-03-29T07:14:30.874Z,10.45
2023-03-29T07:19:34.795Z,10.36
2023-03-29T07:25:02.224Z,10.42
2023-03-29T07:30:11.143Z,10.60
2023-03-29T07:35:17.691Z,10.96
2023-03-29T07:40:23.937Z,10.97
2023-03-29T07:45:33.293Z,11.01
2023-03-29T07:50:42.032Z,11.23
2023-03-29T07:55:49.149Z,11.10
2023-03-29T08:01:30.251Z,11.36
2023-03-29T08:06:55.326Z,11.31
2023-03-29T08:12:05.249Z,11.77
2023-03-29T08:17:12.092Z,11.58
2023-03-29T08:22:22.045Z,11.81
2023-03-29T08:27:54.572Z,11.83
2023-03-29T08:33:16.196Z,11.76
2023-03-29T08:38:21.740Z,11.92
2023-03-29T08:43:56.321Z,12.13
2023-03-29T08:49:13.183Z,12.18
2023-03-29T08:54:20.538Z,12.35
2023-03-29T08:59:45.579Z,12.39
2023-03-29T09:04:52.445Z,11.99
2023-03-29T09:10:17.580Z,12.22
2023-03-29T09:15:27.802Z,12.29
2023-03-29T09:21:08.457Z,12.63
2023-03-29T09:26:19.561Z,12.53
2023-03-29T09:31:43.401Z,12.93
2023-03-29T09:36:51.365Z,12.71
2023-03-29T09:41:58.101Z,12.50
2023-03-29T09:47:04.611Z,13.05
2023-03-29T09:52:13.833Z,12.85
2023-03-29T09:57:21.362Z,13.06
2023-03-29T10:02:30.700Z,13.42
2023-03-29T10:07:44.666Z,13.60
2023-03-29T10:12:51.749Z,13.93
2023-03-29T10:18:00.826Z,14.23
2023-03-29T10:23:06.365Z,14.21
2023-03-29T10:28:13.099Z,14.29
2023-03-29T10:33:21.223Z,13.74
2023-03-29T10:38:25.913Z,13.86
2023-03-29T10:43:32.241Z,13.89
2023-03-29T10:48:37.314Z,13.71
2023-03-29T10:53:40.257Z,13.65
2023-03-29T10:58:56.386Z,13.71
2023-03-29T11:04:19.413Z,13.79
2023-03-29T11:09:27.726Z,14.12
2023-03-29T11:14:39.933Z,14.47
2023-03-29T11:19:55.281Z,14.61
2023-03-29T11:25:11.162Z,14.52
2023-03-29T11:30:18.809Z,14.38
2023-03-29T11:35:34.713Z,14.40
2023-03-29T11:40:46.287Z,14.65
2023-03-29T11:45:53.476Z,15.27
2023-03-29T11:51:00.967Z,15.05
2023-03-29T11:56:10.232Z,14.93
2023-03-29T12:01:15.028Z,15.25
2023-03-29T12:06:22.652Z,15.11
2023-03-29T12:11:31.166Z,15.34
2023-03-29T12:16:37.217Z,14.90
2023-03-29T12:21:42.651Z,14.40
2023-03-29T12:26:57.784Z,14.58
2023-03-29T12:32:15.969Z,14.37
2023-03-29T12:37:38.186Z,14.24
2023-03-29T12:43:03.993Z,13.90
2023-03-29T12:48:31.829Z,14.02
2023-03-29T12:53:37.754Z,13.85
2023-03-29T12:58:51.719Z,13.63
2023-03-29T13:03:58.742Z,13.88
2023-03-29T13:09:05.733Z,13.90
2023-03-29T13:14:14.321Z,13.70
2023-03-29T13:19:28.262Z,14.02
2023-03-29T13:24:42.111Z,14.89
2023-03-29T13:29:53.473Z,14.97
2023-03-29T13:35:00.704Z,15.22
2023-03-29T13:40:45.346Z,14.39
2023-03-29T13:46:19.851Z,14.30
2023-03-29T13:51:29.271Z,14.10
2023-03-29T13:56:35.689Z,14.30
2023-03-29T14:01:45.887Z,14.34
2023-03-29T14:07:14.423Z,14.02
2023-03-29T14:12:20.389Z,14.52
2023-03-29T14:17:26.046Z,14.63
2023-03-29T14:22:32.456Z,14.41
2023-03-29T14:27:37.109Z,14.25
2023-03-29T14:32:41.431Z,14.15
2023-03-29T14:37:44.528Z,14.34
2023-03-29T14:42:48.478Z,14.18
2023-03-29T14:47:53.102Z,14.00
2023-03-29T14:52:57.816Z,14.29
2023-03-29T14:58:01.305Z,14.15
2023-03-29T15:03:14.170Z,14.21
2023-03-29T15:08:20.637Z,14.11
2023-03-29T15:13:25.232Z,14.32
2023-03-29T15:18:32.050Z,14.35
2023-03-29T15:23:39.415Z,14.50
2023-03-29T15:28:49.640Z,14.69
2023-03-29T15:34:04.031Z,14.55
2023-03-29T15:39:10.718Z,14.63
2023-03-29T15:44:17.382Z,14.43
2023-03-29T15:49:21.897Z,14.44
2023-03-29T15:54:24.977Z,14.26
2023-03-29T15:59:27.955Z,14.29
2023-03-29T16:04:32.178Z,14.24
2023-03-29T16:09:35.536Z,14.15
2023-03-29T16:14:38.378Z,14.22
2023-03-29T16:19:42.653Z,14.28
2023-03-29T16:24:45.649Z,14.28
2023-03-29T16:29:48.541Z,14.02
2023-03-29T16:34:53.839Z,14.14
2023-03-29T16:39:58.144Z,14.07
2023-03-29T16:45:02.230Z,14.19
2023-03-29T16:50:08.136Z,14.05
2023-03-29T16:55:12.740Z,14.09
2023-03-29T17:00:19.512Z,14.13
2023-03-29T17:05:25.296Z,14.21
2023-03-29T17:10:28.219Z,14.20
2023-03-29T17:15:31.365Z,14.30
2023-03-29T17:20:35.685Z,14.40
2023-03-29T17:25:38.735Z,14.16
2023-03-29T17:30:41.815Z,14.16
2023-03-29T17:35:46.246Z,14.22
2023-03-29T17:40:53.185Z,14.24
2023-03-29T17:45:56.286Z,14.17
2023-03-29T17:51:00.431Z,14.04
2023-03-29T17:56:03.526Z,14.21
2023-03-29T18:01:10.542Z,13.99
2023-03-29T18:06:16.685Z,14.08
2023-03-29T18:11:23.831Z,14.02
2023-03-29T18:16:26.855Z,14.10
2023-03-29T18:21:31.045Z,14.12
2023-03-29T18:26:33.897Z,14.05
2023-03-29T18:31:36.874Z,13.95
2023-03-29T18:36:41.174Z,13.92
2023-03-29T18:41:43.965Z,13.97
2023-03-29T18:46:48.019Z,14.00
2023-03-29T18:51:52.292Z,13.86
2023-03-29T18:56:57.859Z,13.91
2023-03-29T19:02:01.921Z,13.92
2023-03-29T19:07:06.820Z,13.84
2023-03-29T19:12:09.841Z,13.87
2023-03-29T19:17:12.712Z,13.83
2023-03-29T19:22:17.356Z,13.85
2023-03-29T19:27:20.324Z,13.62
2023-03-29T19:32:23.053Z,13.72
2023-03-29T19:37:27.327Z,13.73
2023-03-29T19:42:30.274Z,13.64
2023-03-29T19:47:33.204Z,13.76
2023-03-29T19:52:37.416Z,13.75
2023-03-29T19:57:40.160Z,13.71
2023-03-29T20:02:42.954Z,13.73
2023-03-29T20:07:47.141Z,13.85
2023-03-29T20:12:50.960Z,13.80
2023-03-29T20:17:55.326Z,13.68
2023-03-29T20:23:05.184Z,13.74
2023-03-29T20:28:08.584Z,13.72
2023-03-29T20:33:11.392Z,13.72
2023-03-29T20:38:15.810Z,13.68
2023-03-29T20:43:20.081Z,13.61
2023-03-29T20:48:24.742Z,13.66
2023-03-29T20:53:34.574Z,13.61
2023-03-29T20:58:41.794Z,13.62
2023-03-29T21:03:44.711Z,13.74
2023-03-29T21:08:50.401Z,13.81
2023-03-29T21:13:53.889Z,13.81
2023-03-29T21:18:56.688Z,13.93
2023-03-29T21:24:00.762Z,13.93
2023-03-29T21:29:03.660Z,13.84
2023-03-29T21:34:06.489Z,13.81
2023-03-29T21:39:10.883Z,13.90
2023-03-29T21:44:13.860Z,13.83
2023-03-29T21:49:16.662Z,13.84
2023-03-29T21:54:20.817Z,13.80
2023-03-29T21:59:23.614Z,13.86
2023-03-29T22:04:35.771Z,14.03
2023-03-29T22:09:42.317Z,14.11
2023-03-29T22:14:45.321Z,14.06
2023-03-29T22:19:48.056Z,14.11
2023-03-29T22:24:54.744Z,13.94
2023-03-29T22:29:58.609Z,14.23
2023-03-29T22:35:01.538Z,14.19
2023-03-29T22:40:09.044Z,14.31
2023-03-29T22:45:12.238Z,14.08
2023-03-29T22:50:15.112Z,14.24
2023-03-29T22:55:19.293Z,14.16
2023-03-29T23:00:22.411Z,14.31
2023-03-29T23:05:25.288Z,14.41
2023-03-29T23:10:30.562Z,14.43
2023-03-29T23:15:33.952Z,14.40
2023-03-29T23:20:36.780Z,14.50
2023-03-29T23:25:41.426Z,14.55
2023-03-29T23:30:44.527Z,14.37
2023-03-29T23:35:47.440Z,14.34
2023-03-29T23:40:58.975Z,14.30
2023-03-29T23:46:03.650Z,14.41
2023-03-29T23:51:08.145Z,14.40
2023-03-29T23:56:12.627Z,14.32
